sensor_id;sensor_type;location;lat;lon;timestamp;P1;durP1;ratioP1;P2;durP2;ratioP2
13832;SDS011;6987;19.472;-99.276;2023-02-15T00:02:07;2.72;;;2.20;;
13832;SDS011;6987;19.472;-99.276;2023-02-15T00:04:36;1.95;;;1.85;;
13832;SDS011;6987;19.472;-99.276;2023-02-15T00:07:16;2.35;;;2.22;;
13832;SDS011;6987;19.472;-99.276;2023-02-15T00:09:46;3.72;;;2.63;;
13832;SDS011;6987;19.472;-99.276;2023-02-15T00:12:15;2.75;;;2.17;;
13832;SDS011;6987;19.472;-99.276;2023-02-15T00:14:44;18.35;;;2.30;;
13832;SDS011;6987;19.472;-99.276;2023-02-15T00:17:13;2.45;;;2.30;;
13832;SDS011;6987;19.472;-99.276;2023-02-15T00:19:42;2.58;;;2.47;;
13832;SDS011;6987;19.472;-99.276;2023-02-15T00:22:11;2.80;;;2.60;;
13832;SDS011;6987;19.472;-99.276;2023-02-15T00:24:41;4.72;;;2.58;;
13832;SDS011;6987;19.472;-99.276;2023-02-15T00:27:10;3.22;;;2.45;;
13832;SDS011;6987;19.472;-99.276;2023-02-15T00:29:39;2.80;;;2.60;;
13832;SDS011;6987;19.472;-99.276;2023-02-15T00:32:08;2.15;;;2.05;;
13832;SDS011;6987;19.472;-99.276;2023-02-15T00:34:37;2.63;;;2.38;;
13832;SDS011;6987;19.472;-99.276;2023-02-15T00:37:06;5.45;;;2.75;;
13832;SDS011;6987;19.472;-99.276;2023-02-15T00:39:34;4.32;;;2.65;;
13832;SDS011;6987;19.472;-99.276;2023-02-15T00:42:05;4.25;;;2.53;;
13832;SDS011;6987;19.472;-99.276;2023-02-15T00:44:34;3.17;;;2.90;;
13832;SDS011;6987;19.472;-99.276;2023-02-15T00:47:03;3.50;;;2.83;;
13832;SDS011;6987;19.472;-99.276;2023-02-15T00:49:32;2.83;;;2.63;;
13832;SDS011;6987;19.472;-99.276;2023-02-15T00:52:00;3.25;;;3.03;;
13832;SDS011;6987;19.472;-99.276;2023-02-15T00:54:29;2.95;;;2.67;;
13832;SDS011;6987;19.472;-99.276;2023-02-15T00:57:00;2.65;;;2.45;;
13832;SDS011;6987;19.472;-99.276;2023-02-15T00:59:30;9.25;;;2.72;;
13832;SDS011;6987;19.472;-99.276;2023-02-15T01:01:59;18.75;;;3.10;;
13832;SDS011;6987;19.472;-99.276;2023-02-15T01:04:28;3.10;;;2.70;;
13832;SDS011;6987;19.472;-99.276;2023-02-15T01:06:57;2.78;;;2.53;;
13832;SDS011;6987;19.472;-99.276;2023-02-15T01:09:27;3.78;;;3.05;;
13832;SDS011;6987;19.472;-99.276;2023-02-15T01:11:56;5.82;;;2.78;;
13832;SDS011;6987;19.472;-99.276;2023-02-15T01:14:25;2.13;;;1.98;;
13832;SDS011;6987;19.472;-99.276;2023-02-15T01:16:55;10.30;;;2.40;;
13832;SDS011;6987;19.472;-99.276;2023-02-15T01:19:24;4.65;;;2.33;;
13832;SDS011;6987;19.472;-99.276;2023-02-15T01:21:53;3.35;;;2.05;;
13832;SDS011;6987;19.472;-99.276;2023-02-15T01:24:22;4.03;;;2.33;;
13832;SDS011;6987;19.472;-99.276;2023-02-15T01:26:51;2.70;;;2.50;;
13832;SDS011;6987;19.472;-99.276;2023-02-15T01:29:20;3.55;;;2.67;;
13832;SDS011;6987;19.472;-99.276;2023-02-15T01:31:48;2.83;;;2.58;;
13832;SDS011;6987;19.472;-99.276;2023-02-15T01:34:19;5.55;;;2.45;;
13832;SDS011;6987;19.472;-99.276;2023-02-15T01:36:48;3.03;;;2.17;;
13832;SDS011;6987;19.472;-99.276;2023-02-15T01:39:17;1.92;;;1.83;;
13832;SDS011;6987;19.472;-99.276;2023-02-15T01:41:46;3.28;;;2.20;;
13832;SDS011;6987;19.472;-99.276;2023-02-15T01:47:02;2.47;;;2.20;;
13832;SDS011;6987;19.472;-99.276;2023-02-15T01:49:33;2.13;;;2.03;;
13832;SDS011;6987;19.472;-99.276;2023-02-15T01:52:01;2.53;;;2.33;;
13832;SDS011;6987;19.472;-99.276;2023-02-15T01:54:31;2.63;;;2.20;;
13832;SDS011;6987;19.472;-99.276;2023-02-15T01:57:03;2.55;;;2.08;;
13832;SDS011;6987;19.472;-99.276;2023-02-15T01:59:34;2.78;;;2.50;;
13832;SDS011;6987;19.472;-99.276;2023-02-15T02:02:04;3.15;;;2.47;;
13832;SDS011;6987;19.472;-99.276;2023-02-15T02:04:38;3.60;;;2.50;;
13832;SDS011;6987;19.472;-99.276;2023-02-15T02:07:08;2.75;;;2.40;;
13832;SDS011;6987;19.472;-99.276;2023-02-15T02:09:38;3.05;;;2.22;;
13832;SDS011;6987;19.472;-99.276;2023-02-15T02:12:06;2.40;;;2.20;;
13832;SDS011;6987;19.472;-99.276;2023-02-15T02:14:36;3.50;;;2.13;;
13832;SDS011;6987;19.472;-99.276;2023-02-15T02:17:06;2.80;;;2.60;;
13832;SDS011;6987;19.472;-99.276;2023-02-15T02:22:43;2.50;;;2.40;;
13832;SDS011;6987;19.472;-99.276;2023-02-15T02:25:23;2.88;;;2.67;;
13832;SDS011;6987;19.472;-99.276;2023-02-15T02:28:01;3.85;;;2.58;;
13832;SDS011;6987;19.472;-99.276;2023-02-15T02:30:49;4.78;;;2.45;;
13832;SDS011;6987;19.472;-99.276;2023-02-15T02:33:44;2.95;;;2.75;;
13832;SDS011;6987;19.472;-99.276;2023-02-15T02:36:19;3.55;;;2.63;;
13832;SDS011;6987;19.472;-99.276;2023-02-15T02:38:54;2.70;;;2.50;;
13832;SDS011;6987;19.472;-99.276;2023-02-15T02:41:28;5.65;;;3.15;;
13832;SDS011;6987;19.472;-99.276;2023-02-15T02:44:01;5.13;;;3.20;;
13832;SDS011;6987;19.472;-99.276;2023-02-15T02:46:33;3.70;;;2.72;;
13832;SDS011;6987;19.472;-99.276;2023-02-15T02:49:06;3.20;;;2.65;;
13832;SDS011;6987;19.472;-99.276;2023-02-15T02:51:35;6.95;;;2.63;;
13832;SDS011;6987;19.472;-99.276;2023-02-15T02:54:04;4.82;;;2.78;;
13832;SDS011;6987;19.472;-99.276;2023-02-15T02:56:34;15.57;;;3.08;;
13832;SDS011;6987;19.472;-99.276;2023-02-15T02:59:05;2.72;;;2.53;;
13832;SDS011;6987;19.472;-99.276;2023-02-15T03:01:37;3.28;;;3.03;;
13832;SDS011;6987;19.472;-99.276;2023-02-15T03:04:10;4.25;;;3.40;;
13832;SDS011;6987;19.472;-99.276;2023-02-15T03:06:40;5.45;;;3.42;;
13832;SDS011;6987;19.472;-99.276;2023-02-15T03:09:10;4.40;;;2.92;;
13832;SDS011;6987;19.472;-99.276;2023-02-15T03:11:47;3.20;;;3.00;;
13832;SDS011;6987;19.472;-99.276;2023-02-15T03:14:16;3.20;;;2.55;;
13832;SDS011;6987;19.472;-99.276;2023-02-15T03:16:47;3.40;;;2.58;;
13832;SDS011;6987;19.472;-99.276;2023-02-15T03:19:19;4.60;;;2.88;;
13832;SDS011;6987;19.472;-99.276;2023-02-15T03:21:50;2.67;;;2.47;;
13832;SDS011;6987;19.472;-99.276;2023-02-15T03:24:31;4.05;;;2.70;;
13832;SDS011;6987;19.472;-99.276;2023-02-15T03:27:00;4.35;;;2.70;;
13832;SDS011;6987;19.472;-99.276;2023-02-15T03:29:31;2.95;;;2.72;;
13832;SDS011;6987;19.472;-99.276;2023-02-15T03:32:02;2.75;;;2.55;;
13832;SDS011;6987;19.472;-99.276;2023-02-15T03:34:33;5.05;;;2.92;;
13832;SDS011;6987;19.472;-99.276;2023-02-15T03:37:04;7.65;;;3.15;;
13832;SDS011;6987;19.472;-99.276;2023-02-15T03:39:35;2.80;;;2.60;;
13832;SDS011;6987;19.472;-99.276;2023-02-15T03:42:08;3.72;;;2.55;;
13832;SDS011;6987;19.472;-99.276;2023-02-15T03:44:41;3.95;;;2.38;;
13832;SDS011;6987;19.472;-99.276;2023-02-15T03:47:12;3.42;;;2.92;;
13832;SDS011;6987;19.472;-99.276;2023-02-15T03:49:44;4.20;;;2.75;;
13832;SDS011;6987;19.472;-99.276;2023-02-15T03:52:13;3.17;;;2.15;;
13832;SDS011;6987;19.472;-99.276;2023-02-15T03:54:41;4.20;;;2.90;;
13832;SDS011;6987;19.472;-99.276;2023-02-15T03:57:16;3.15;;;2.28;;
13832;SDS011;6987;19.472;-99.276;2023-02-15T04:00:03;4.03;;;2.28;;
13832;SDS011;6987;19.472;-99.276;2023-02-15T04:05:37;4.38;;;2.85;;
13832;SDS011;6987;19.472;-99.276;2023-02-15T04:08:06;5.95;;;3.00;;
13832;SDS011;6987;19.472;-99.276;2023-02-15T04:10:35;2.65;;;2.45;;
13832;SDS011;6987;19.472;-99.276;2023-02-15T04:13:22;3.00;;;2.72;;
13832;SDS011;6987;19.472;-99.276;2023-02-15T04:15:53;2.72;;;2.53;;
13832;SDS011;6987;19.472;-99.276;2023-02-15T04:18:30;2.55;;;2.35;;
13832;SDS011;6987;19.472;-99.276;2023-02-15T04:21:17;3.00;;;2.78;;
13832;SDS011;6987;19.472;-99.276;2023-02-15T04:24:03;3.33;;;2.80;;
13832;SDS011;6987;19.472;-99.276;2023-02-15T04:26:49;3.05;;;2.78;;
13832;SDS011;6987;19.472;-99.276;2023-02-15T04:29:19;4.45;;;3.20;;
13832;SDS011;6987;19.472;-99.276;2023-02-15T04:31:48;3.15;;;2.85;;
13832;SDS011;6987;19.472;-99.276;2023-02-15T04:34:17;2.97;;;2.78;;
13832;SDS011;6987;19.472;-99.276;2023-02-15T04:36:48;4.35;;;2.83;;
13832;SDS011;6987;19.472;-99.276;2023-02-15T04:39:17;4.05;;;2.88;;
13832;SDS011;6987;19.472;-99.276;2023-02-15T04:41:46;3.72;;;3.42;;
13832;SDS011;6987;19.472;-99.276;2023-02-15T04:44:15;3.50;;;2.42;;
13832;SDS011;6987;19.472;-99.276;2023-02-15T04:46:44;5.13;;;3.13;;
13832;SDS011;6987;19.472;-99.276;2023-02-15T04:49:13;3.42;;;2.75;;
13832;SDS011;6987;19.472;-99.276;2023-02-15T04:51:42;6.30;;;2.75;;
13832;SDS011;6987;19.472;-99.276;2023-02-15T04:54:12;4.35;;;2.55;;
13832;SDS011;6987;19.472;-99.276;2023-02-15T04:56:41;2.70;;;2.38;;
13832;SDS011;6987;19.472;-99.276;2023-02-15T04:59:10;2.88;;;2.60;;
13832;SDS011;6987;19.472;-99.276;2023-02-15T05:01:39;2.72;;;2.53;;
13832;SDS011;6987;19.472;-99.276;2023-02-15T05:04:08;2.95;;;2.60;;
13832;SDS011;6987;19.472;-99.276;2023-02-15T05:06:37;5.40;;;2.20;;
13832;SDS011;6987;19.472;-99.276;2023-02-15T05:09:06;6.05;;;2.72;;
13832;SDS011;6987;19.472;-99.276;2023-02-15T05:11:36;2.38;;;2.15;;
13832;SDS011;6987;19.472;-99.276;2023-02-15T05:14:05;5.30;;;3.17;;
13832;SDS011;6987;19.472;-99.276;2023-02-15T05:16:34;3.50;;;3.05;;
13832;SDS011;6987;19.472;-99.276;2023-02-15T05:19:03;4.40;;;3.50;;
13832;SDS011;6987;19.472;-99.276;2023-02-15T05:21:32;5.75;;;3.08;;
13832;SDS011;6987;19.472;-99.276;2023-02-15T05:24:01;4.43;;;3.42;;
13832;SDS011;6987;19.472;-99.276;2023-02-15T05:26:51;6.38;;;3.67;;
13832;SDS011;6987;19.472;-99.276;2023-02-15T05:29:37;3.15;;;2.92;;
13832;SDS011;6987;19.472;-99.276;2023-02-15T05:32:06;3.92;;;3.45;;
13832;SDS011;6987;19.472;-99.276;2023-02-15T05:34:35;8.48;;;3.65;;
13832;SDS011;6987;19.472;-99.276;2023-02-15T05:37:03;7.90;;;3.53;;
13832;SDS011;6987;19.472;-99.276;2023-02-15T05:39:33;6.18;;;3.78;;
13832;SDS011;6987;19.472;-99.276;2023-02-15T05:42:03;6.72;;;3.63;;
13832;SDS011;6987;19.472;-99.276;2023-02-15T05:44:32;6.78;;;3.88;;
13832;SDS011;6987;19.472;-99.276;2023-02-15T05:47:01;8.82;;;4.05;;
13832;SDS011;6987;19.472;-99.276;2023-02-15T05:49:32;5.97;;;4.20;;
13832;SDS011;6987;19.472;-99.276;2023-02-15T05:52:02;5.38;;;3.72;;
13832;SDS011;6987;19.472;-99.276;2023-02-15T05:54:31;8.15;;;4.28;;
13832;SDS011;6987;19.472;-99.276;2023-02-15T05:57:00;7.55;;;4.80;;
13832;SDS011;6987;19.472;-99.276;2023-02-15T05:59:30;10.40;;;4.30;;
13832;SDS011;6987;19.472;-99.276;2023-02-15T06:01:59;7.28;;;3.85;;
13832;SDS011;6987;19.472;-99.276;2023-02-15T06:04:28;9.18;;;5.63;;
13832;SDS011;6987;19.472;-99.276;2023-02-15T06:06:57;13.68;;;5.78;;
13832;SDS011;6987;19.472;-99.276;2023-02-15T06:09:28;15.10;;;6.20;;
13832;SDS011;6987;19.472;-99.276;2023-02-15T06:12:01;11.68;;;6.18;;
13832;SDS011;6987;19.472;-99.276;2023-02-15T06:14:32;14.90;;;6.55;;
13832;SDS011;6987;19.472;-99.276;2023-02-15T06:17:01;16.27;;;6.72;;
13832;SDS011;6987;19.472;-99.276;2023-02-15T06:19:29;19.02;;;8.50;;
13832;SDS011;6987;19.472;-99.276;2023-02-15T06:21:58;12.45;;;7.88;;
13832;SDS011;6987;19.472;-99.276;2023-02-15T06:24:27;16.13;;;8.18;;
13832;SDS011;6987;19.472;-99.276;2023-02-15T06:26:56;14.13;;;7.30;;
13832;SDS011;6987;19.472;-99.276;2023-02-15T06:29:25;19.20;;;7.93;;
13832;SDS011;6987;19.472;-99.276;2023-02-15T06:31:56;12.05;;;7.53;;
13832;SDS011;6987;19.472;-99.276;2023-02-15T06:34:24;10.55;;;6.38;;
13832;SDS011;6987;19.472;-99.276;2023-02-15T06:36:53;6.20;;;4.95;;
13832;SDS011;6987;19.472;-99.276;2023-02-15T06:39:22;27.25;;;6.55;;
13832;SDS011;6987;19.472;-99.276;2023-02-15T06:41:51;12.68;;;5.75;;
13832;SDS011;6987;19.472;-99.276;2023-02-15T06:44:20;16.95;;;6.10;;
13832;SDS011;6987;19.472;-99.276;2023-02-15T06:46:49;10.18;;;5.22;;
13832;SDS011;6987;19.472;-99.276;2023-02-15T06:49:19;11.20;;;4.60;;
13832;SDS011;6987;19.472;-99.276;2023-02-15T06:51:48;6.35;;;5.72;;
13832;SDS011;6987;19.472;-99.276;2023-02-15T06:54:17;8.43;;;5.63;;
13832;SDS011;6987;19.472;-99.276;2023-02-15T06:56:47;7.50;;;5.18;;
13832;SDS011;6987;19.472;-99.276;2023-02-15T06:59:16;9.52;;;6.38;;
13832;SDS011;6987;19.472;-99.276;2023-02-15T07:01:45;11.02;;;5.90;;
13832;SDS011;6987;19.472;-99.276;2023-02-15T07:04:14;7.93;;;5.53;;
13832;SDS011;6987;19.472;-99.276;2023-02-15T07:06:45;13.40;;;6.60;;
13832;SDS011;6987;19.472;-99.276;2023-02-15T07:09:14;12.00;;;6.40;;
13832;SDS011;6987;19.472;-99.276;2023-02-15T07:11:42;10.02;;;6.40;;
13832;SDS011;6987;19.472;-99.276;2023-02-15T07:14:28;15.07;;;6.55;;
13832;SDS011;6987;19.472;-99.276;2023-02-15T07:16:57;23.83;;;7.63;;
13832;SDS011;6987;19.472;-99.276;2023-02-15T07:19:26;12.45;;;6.55;;
13832;SDS011;6987;19.472;-99.276;2023-02-15T07:21:57;7.38;;;6.00;;
13832;SDS011;6987;19.472;-99.276;2023-02-15T07:24:25;13.05;;;6.45;;
13832;SDS011;6987;19.472;-99.276;2023-02-15T07:26:54;13.48;;;6.00;;
13832;SDS011;6987;19.472;-99.276;2023-02-15T07:29:24;7.60;;;6.10;;
13832;SDS011;6987;19.472;-99.276;2023-02-15T07:31:53;8.77;;;5.88;;
13832;SDS011;6987;19.472;-99.276;2023-02-15T07:34:21;16.60;;;6.55;;
13832;SDS011;6987;19.472;-99.276;2023-02-15T07:36:50;8.65;;;5.35;;
13832;SDS011;6987;19.472;-99.276;2023-02-15T07:39:21;6.93;;;6.00;;
13832;SDS011;6987;19.472;-99.276;2023-02-15T07:41:50;6.60;;;5.45;;
13832;SDS011;6987;19.472;-99.276;2023-02-15T07:44:19;5.65;;;4.78;;
13832;SDS011;6987;19.472;-99.276;2023-02-15T07:46:47;13.02;;;5.63;;
13832;SDS011;6987;19.472;-99.276;2023-02-15T07:49:16;7.20;;;5.35;;
13832;SDS011;6987;19.472;-99.276;2023-02-15T07:51:45;10.40;;;5.68;;
13832;SDS011;6987;19.472;-99.276;2023-02-15T07:54:14;12.57;;;6.00;;
13832;SDS011;6987;19.472;-99.276;2023-02-15T07:56:44;8.55;;;5.72;;
13832;SDS011;6987;19.472;-99.276;2023-02-15T07:59:13;8.32;;;5.90;;
13832;SDS011;6987;19.472;-99.276;2023-02-15T08:01:42;7.55;;;4.82;;
13832;SDS011;6987;19.472;-99.276;2023-02-15T08:04:11;6.93;;;5.07;;
13832;SDS011;6987;19.472;-99.276;2023-02-15T08:06:40;5.88;;;5.18;;
13832;SDS011;6987;19.472;-99.276;2023-02-15T08:09:09;7.72;;;4.68;;
13832;SDS011;6987;19.472;-99.276;2023-02-15T08:11:38;7.78;;;5.20;;
13832;SDS011;6987;19.472;-99.276;2023-02-15T08:14:09;7.45;;;5.32;;
13832;SDS011;6987;19.472;-99.276;2023-02-15T08:16:38;14.45;;;4.80;;
13832;SDS011;6987;19.472;-99.276;2023-02-15T08:19:07;6.93;;;4.53;;
13832;SDS011;6987;19.472;-99.276;2023-02-15T08:21:37;7.72;;;4.40;;
13832;SDS011;6987;19.472;-99.276;2023-02-15T08:24:07;5.88;;;4.43;;
13832;SDS011;6987;19.472;-99.276;2023-02-15T08:26:36;4.40;;;4.00;;
13832;SDS011;6987;19.472;-99.276;2023-02-15T08:29:06;5.47;;;4.25;;
13832;SDS011;6987;19.472;-99.276;2023-02-15T08:31:36;5.43;;;4.78;;
13832;SDS011;6987;19.472;-99.276;2023-02-15T08:34:07;5.47;;;3.70;;
13832;SDS011;6987;19.472;-99.276;2023-02-15T08:36:36;6.30;;;3.53;;
13832;SDS011;6987;19.472;-99.276;2023-02-15T08:39:05;4.60;;;4.13;;
13832;SDS011;6987;19.472;-99.276;2023-02-15T08:41:35;8.27;;;4.05;;
13832;SDS011;6987;19.472;-99.276;2023-02-15T08:44:04;5.65;;;4.18;;
13832;SDS011;6987;19.472;-99.276;2023-02-15T08:46:33;8.30;;;4.22;;
13832;SDS011;6987;19.472;-99.276;2023-02-15T08:49:05;4.30;;;3.60;;
13832;SDS011;6987;19.472;-99.276;2023-02-15T08:51:34;4.10;;;3.80;;
13832;SDS011;6987;19.472;-99.276;2023-02-15T08:54:04;4.40;;;3.60;;
13832;SDS011;6987;19.472;-99.276;2023-02-15T08:56:35;4.00;;;3.70;;
13832;SDS011;6987;19.472;-99.276;2023-02-15T08:59:04;5.07;;;3.92;;
13832;SDS011;6987;19.472;-99.276;2023-02-15T09:01:34;5.00;;;2.80;;
13832;SDS011;6987;19.472;-99.276;2023-02-15T09:04:05;4.47;;;3.83;;
13832;SDS011;6987;19.472;-99.276;2023-02-15T09:06:35;4.35;;;3.22;;
13832;SDS011;6987;19.472;-99.276;2023-02-15T09:09:04;5.03;;;3.28;;
13832;SDS011;6987;19.472;-99.276;2023-02-15T09:11:33;3.92;;;3.28;;
13832;SDS011;6987;19.472;-99.276;2023-02-15T09:14:03;3.78;;;3.47;;
13832;SDS011;6987;19.472;-99.276;2023-02-15T09:16:34;5.00;;;3.88;;
13832;SDS011;6987;19.472;-99.276;2023-02-15T09:19:05;6.32;;;4.40;;
13832;SDS011;6987;19.472;-99.276;2023-02-15T09:21:35;6.82;;;4.10;;
13832;SDS011;6987;19.472;-99.276;2023-02-15T09:24:04;6.68;;;4.00;;
13832;SDS011;6987;19.472;-99.276;2023-02-15T09:26:34;6.10;;;4.20;;
13832;SDS011;6987;19.472;-99.276;2023-02-15T09:29:03;5.57;;;3.85;;
13832;SDS011;6987;19.472;-99.276;2023-02-15T09:31:33;6.05;;;4.05;;
13832;SDS011;6987;19.472;-99.276;2023-02-15T09:34:02;10.73;;;4.30;;
13832;SDS011;6987;19.472;-99.276;2023-02-15T09:36:33;5.30;;;4.25;;
13832;SDS011;6987;19.472;-99.276;2023-02-15T09:39:04;6.15;;;4.70;;
13832;SDS011;6987;19.472;-99.276;2023-02-15T09:41:42;5.80;;;4.70;;
13832;SDS011;6987;19.472;-99.276;2023-02-15T09:44:20;6.80;;;4.88;;
13832;SDS011;6987;19.472;-99.276;2023-02-15T09:46:56;6.68;;;5.32;;
13832;SDS011;6987;19.472;-99.276;2023-02-15T09:49:30;5.50;;;5.00;;
13832;SDS011;6987;19.472;-99.276;2023-02-15T09:52:06;4.95;;;4.50;;
13832;SDS011;6987;19.472;-99.276;2023-02-15T09:54:42;5.65;;;4.90;;
13832;SDS011;6987;19.472;-99.276;2023-02-15T09:57:16;4.95;;;4.43;;
13832;SDS011;6987;19.472;-99.276;2023-02-15T09:59:49;4.82;;;4.32;;
13832;SDS011;6987;19.472;-99.276;2023-02-15T10:02:22;6.65;;;4.50;;
13832;SDS011;6987;19.472;-99.276;2023-02-15T10:04:59;5.20;;;4.65;;
13832;SDS011;6987;19.472;-99.276;2023-02-15T10:07:35;4.20;;;3.80;;
13832;SDS011;6987;19.472;-99.276;2023-02-15T10:10:13;5.53;;;3.88;;
13832;SDS011;6987;19.472;-99.276;2023-02-15T10:12:52;6.70;;;4.47;;
13832;SDS011;6987;19.472;-99.276;2023-02-15T10:15:24;12.23;;;4.85;;
13832;SDS011;6987;19.472;-99.276;2023-02-15T10:18:03;4.13;;;3.75;;
13832;SDS011;6987;19.472;-99.276;2023-02-15T10:20:36;4.20;;;3.90;;
13832;SDS011;6987;19.472;-99.276;2023-02-15T10:23:13;6.38;;;4.93;;
13832;SDS011;6987;19.472;-99.276;2023-02-15T10:25:46;7.95;;;5.90;;
13832;SDS011;6987;19.472;-99.276;2023-02-15T10:28:16;8.00;;;5.82;;
13832;SDS011;6987;19.472;-99.276;2023-02-15T10:30:46;9.05;;;5.43;;
13832;SDS011;6987;19.472;-99.276;2023-02-15T10:33:21;6.88;;;5.70;;
13832;SDS011;6987;19.472;-99.276;2023-02-15T10:35:57;7.30;;;4.40;;
13832;SDS011;6987;19.472;-99.276;2023-02-15T10:38:32;5.70;;;4.85;;
13832;SDS011;6987;19.472;-99.276;2023-02-15T10:41:04;5.55;;;4.05;;
13832;SDS011;6987;19.472;-99.276;2023-02-15T10:46:22;4.45;;;3.95;;
13832;SDS011;6987;19.472;-99.276;2023-02-15T10:49:05;5.63;;;4.53;;
13832;SDS011;6987;19.472;-99.276;2023-02-15T10:51:37;6.97;;;4.40;;
13832;SDS011;6987;19.472;-99.276;2023-02-15T10:54:16;6.03;;;4.20;;
13832;SDS011;6987;19.472;-99.276;2023-02-15T10:56:48;6.20;;;4.78;;
13832;SDS011;6987;19.472;-99.276;2023-02-15T10:59:32;8.70;;;4.85;;
13832;SDS011;6987;19.472;-99.276;2023-02-15T11:02:09;6.68;;;4.50;;
13832;SDS011;6987;19.472;-99.276;2023-02-15T11:04:45;4.70;;;3.92;;
13832;SDS011;6987;19.472;-99.276;2023-02-15T11:07:16;4.30;;;4.00;;
13832;SDS011;6987;19.472;-99.276;2023-02-15T11:09:48;4.68;;;4.00;;
13832;SDS011;6987;19.472;-99.276;2023-02-15T11:12:19;7.85;;;4.72;;
13832;SDS011;6987;19.472;-99.276;2023-02-15T11:14:50;6.18;;;3.75;;
13832;SDS011;6987;19.472;-99.276;2023-02-15T11:17:21;4.55;;;3.85;;
13832;SDS011;6987;19.472;-99.276;2023-02-15T11:19:53;4.75;;;4.35;;
13832;SDS011;6987;19.472;-99.276;2023-02-15T11:22:24;6.65;;;3.60;;
13832;SDS011;6987;19.472;-99.276;2023-02-15T11:24:55;4.43;;;4.05;;
13832;SDS011;6987;19.472;-99.276;2023-02-15T11:27:26;5.28;;;4.43;;
13832;SDS011;6987;19.472;-99.276;2023-02-15T11:29:59;4.15;;;3.72;;
13832;SDS011;6987;19.472;-99.276;2023-02-15T11:32:30;6.90;;;3.90;;
13832;SDS011;6987;19.472;-99.276;2023-02-15T11:35:00;5.07;;;3.97;;
13832;SDS011;6987;19.472;-99.276;2023-02-15T11:37:33;5.35;;;3.92;;
13832;SDS011;6987;19.472;-99.276;2023-02-15T11:40:12;6.15;;;4.22;;
13832;SDS011;6987;19.472;-99.276;2023-02-15T11:42:43;3.85;;;3.55;;
13832;SDS011;6987;19.472;-99.276;2023-02-15T11:45:17;7.07;;;4.25;;
13832;SDS011;6987;19.472;-99.276;2023-02-15T11:47:48;4.68;;;3.58;;
13832;SDS011;6987;19.472;-99.276;2023-02-15T11:50:19;4.70;;;4.22;;
13832;SDS011;6987;19.472;-99.276;2023-02-15T11:52:49;7.15;;;4.43;;
13832;SDS011;6987;19.472;-99.276;2023-02-15T11:55:20;4.22;;;3.83;;
13832;SDS011;6987;19.472;-99.276;2023-02-15T11:57:51;3.47;;;3.17;;
13832;SDS011;6987;19.472;-99.276;2023-02-15T12:00:25;3.65;;;3.35;;
13832;SDS011;6987;19.472;-99.276;2023-02-15T12:02:57;4.40;;;3.83;;
13832;SDS011;6987;19.472;-99.276;2023-02-15T12:05:25;9.70;;;4.15;;
13832;SDS011;6987;19.472;-99.276;2023-02-15T12:07:55;7.90;;;4.43;;
13832;SDS011;6987;19.472;-99.276;2023-02-15T12:10:27;4.38;;;3.97;;
13832;SDS011;6987;19.472;-99.276;2023-02-15T12:13:08;4.22;;;3.70;;
13832;SDS011;6987;19.472;-99.276;2023-02-15T12:15:37;5.43;;;4.25;;
13832;SDS011;6987;19.472;-99.276;2023-02-15T12:18:15;4.57;;;3.67;;
13832;SDS011;6987;19.472;-99.276;2023-02-15T12:20:46;4.47;;;4.07;;
13832;SDS011;6987;19.472;-99.276;2023-02-15T12:23:17;8.15;;;4.70;;
13832;SDS011;6987;19.472;-99.276;2023-02-15T12:25:51;9.13;;;5.15;;
13832;SDS011;6987;19.472;-99.276;2023-02-15T12:28:23;11.13;;;4.88;;
13832;SDS011;6987;19.472;-99.276;2023-02-15T12:30:52;4.88;;;4.45;;
13832;SDS011;6987;19.472;-99.276;2023-02-15T12:33:25;6.70;;;5.63;;
13832;SDS011;6987;19.472;-99.276;2023-02-15T12:35:56;10.45;;;5.68;;
13832;SDS011;6987;19.472;-99.276;2023-02-15T12:38:26;8.63;;;6.20;;
13832;SDS011;6987;19.472;-99.276;2023-02-15T12:41:00;17.85;;;6.38;;
13832;SDS011;6987;19.472;-99.276;2023-02-15T12:43:30;18.00;;;6.32;;
13832;SDS011;6987;19.472;-99.276;2023-02-15T12:48:46;8.88;;;5.15;;
13832;SDS011;6987;19.472;-99.276;2023-02-15T12:51:15;9.88;;;5.32;;
13832;SDS011;6987;19.472;-99.276;2023-02-15T12:53:44;12.30;;;5.38;;
13832;SDS011;6987;19.472;-99.276;2023-02-15T12:56:14;16.92;;;5.47;;
13832;SDS011;6987;19.472;-99.276;2023-02-15T12:58:58;9.55;;;5.07;;
13832;SDS011;6987;19.472;-99.276;2023-02-15T13:01:32;8.52;;;5.55;;
13832;SDS011;6987;19.472;-99.276;2023-02-15T13:04:03;8.55;;;5.07;;
13832;SDS011;6987;19.472;-99.276;2023-02-15T13:06:33;14.40;;;5.53;;
13832;SDS011;6987;19.472;-99.276;2023-02-15T13:09:05;11.57;;;6.32;;
13832;SDS011;6987;19.472;-99.276;2023-02-15T13:11:37;14.88;;;7.53;;
13832;SDS011;6987;19.472;-99.276;2023-02-15T13:14:15;13.32;;;8.57;;
13832;SDS011;6987;19.472;-99.276;2023-02-15T13:16:45;12.90;;;7.60;;
13832;SDS011;6987;19.472;-99.276;2023-02-15T13:19:16;15.63;;;9.02;;
13832;SDS011;6987;19.472;-99.276;2023-02-15T13:21:46;15.15;;;8.05;;
13832;SDS011;6987;19.472;-99.276;2023-02-15T13:24:17;11.88;;;7.90;;
13832;SDS011;6987;19.472;-99.276;2023-02-15T13:26:48;19.90;;;8.40;;
13832;SDS011;6987;19.472;-99.276;2023-02-15T13:29:19;14.23;;;7.70;;
13832;SDS011;6987;19.472;-99.276;2023-02-15T13:31:50;20.17;;;8.40;;
13832;SDS011;6987;19.472;-99.276;2023-02-15T13:34:21;21.00;;;6.80;;
13832;SDS011;6987;19.472;-99.276;2023-02-15T13:36:51;10.27;;;6.90;;
13832;SDS011;6987;19.472;-99.276;2023-02-15T13:39:24;16.00;;;6.95;;
13832;SDS011;6987;19.472;-99.276;2023-02-15T13:41:59;17.27;;;7.15;;
13832;SDS011;6987;19.472;-99.276;2023-02-15T13:44:41;18.58;;;7.10;;
13832;SDS011;6987;19.472;-99.276;2023-02-15T13:47:17;14.02;;;6.63;;
13832;SDS011;6987;19.472;-99.276;2023-02-15T13:49:53;14.95;;;6.80;;
13832;SDS011;6987;19.472;-99.276;2023-02-15T13:52:25;17.27;;;6.03;;
13832;SDS011;6987;19.472;-99.276;2023-02-15T13:55:01;10.05;;;5.85;;
13832;SDS011;6987;19.472;-99.276;2023-02-15T13:57:40;25.15;;;8.07;;
13832;SDS011;6987;19.472;-99.276;2023-02-15T14:00:14;19.40;;;6.78;;
13832;SDS011;6987;19.472;-99.276;2023-02-15T14:02:58;13.35;;;5.38;;
13832;SDS011;6987;19.472;-99.276;2023-02-15T14:05:33;17.08;;;6.40;;
13832;SDS011;6987;19.472;-99.276;2023-02-15T14:08:08;15.85;;;5.72;;
13832;SDS011;6987;19.472;-99.276;2023-02-15T14:10:43;24.40;;;5.95;;
13832;SDS011;6987;19.472;-99.276;2023-02-15T14:16:02;11.70;;;4.40;;
13832;SDS011;6987;19.472;-99.276;2023-02-15T14:18:33;18.10;;;6.13;;
13832;SDS011;6987;19.472;-99.276;2023-02-15T14:21:05;10.23;;;4.03;;
13832;SDS011;6987;19.472;-99.276;2023-02-15T14:23:39;12.23;;;4.53;;
13832;SDS011;6987;19.472;-99.276;2023-02-15T14:26:11;12.02;;;4.85;;
13832;SDS011;6987;19.472;-99.276;2023-02-15T14:28:44;11.40;;;4.28;;
13832;SDS011;6987;19.472;-99.276;2023-02-15T14:31:16;4.50;;;3.95;;
13832;SDS011;6987;19.472;-99.276;2023-02-15T14:33:49;9.82;;;4.55;;
13832;SDS011;6987;19.472;-99.276;2023-02-15T14:36:21;18.60;;;5.50;;
13832;SDS011;6987;19.472;-99.276;2023-02-15T14:38:53;13.82;;;5.45;;
13832;SDS011;6987;19.472;-99.276;2023-02-15T14:41:23;11.43;;;5.00;;
13832;SDS011;6987;19.472;-99.276;2023-02-15T14:43:56;14.65;;;5.78;;
13832;SDS011;6987;19.472;-99.276;2023-02-15T14:46:33;12.50;;;5.88;;
13832;SDS011;6987;19.472;-99.276;2023-02-15T14:49:08;8.45;;;5.15;;
13832;SDS011;6987;19.472;-99.276;2023-02-15T14:57:24;11.68;;;6.43;;
13832;SDS011;6987;19.472;-99.276;2023-02-15T14:59:54;9.73;;;6.28;;
13832;SDS011;6987;19.472;-99.276;2023-02-15T15:02:29;9.20;;;6.18;;
13832;SDS011;6987;19.472;-99.276;2023-02-15T15:05:02;9.23;;;5.88;;
13832;SDS011;6987;19.472;-99.276;2023-02-15T15:07:38;10.88;;;5.60;;
13832;SDS011;6987;19.472;-99.276;2023-02-15T15:12:57;7.35;;;6.63;;
13832;SDS011;6987;19.472;-99.276;2023-02-15T15:15:33;6.47;;;5.80;;
13832;SDS011;6987;19.472;-99.276;2023-02-15T15:18:04;9.38;;;5.97;;
13832;SDS011;6987;19.472;-99.276;2023-02-15T15:20:38;10.88;;;6.20;;
13832;SDS011;6987;19.472;-99.276;2023-02-15T15:25:55;24.33;;;8.93;;